TimeEST,TemperatureF,Dew PointF,Humidity,Sea Level PressureIn,VisibilityMPH,Wind Direction,Wind SpeedMPH,Gust SpeedMPH,PrecipitationIn,Events,Conditions,WindDirDegrees,DateUTC
12:53 AM,77.0,69.1,76,30.06,10.0,SE,5.8,-,N/A,,Clear,140,2012-12-13 05:53:00
1:53 AM,77.0,69.1,76,30.05,10.0,SSE,3.5,-,N/A,,Clear,150,2012-12-13 06:53:00
2:53 AM,75.9,69.1,79,30.04,10.0,Calm,Calm,-,N/A,,Partly Cloudy,0,2012-12-13 07:53:00
3:53 AM,73.0,68.0,84,30.04,10.0,Calm,Calm,-,N/A,,Clear,0,2012-12-13 08:53:00
4:53 AM,73.0,68.0,84,30.04,10.0,Calm,Calm,-,N/A,,Clear,0,2012-12-13 09:53:00
5:53 AM,73.0,66.9,81,30.05,10.0,Calm,Calm,-,N/A,,Clear,0,2012-12-13 10:53:00
6:53 AM,72.0,66.9,84,30.06,10.0,Calm,Calm,-,N/A,,Clear,0,2012-12-13 11:53:00
7:53 AM,75.9,69.1,79,30.07,10.0,Calm,Calm,-,N/A,,Clear,0,2012-12-13 12:53:00
8:53 AM,80.1,69.1,69,30.09,10.0,Calm,Calm,-,N/A,,Clear,0,2012-12-13 13:53:00
9:14 AM,80.6,68.0,65,30.09,10.0,Calm,Calm,-,N/A,,Mostly Cloudy,0,2012-12-13 14:14:00
9:53 AM,82.0,68.0,62,30.10,10.0,Calm,Calm,-,N/A,,Overcast,0,2012-12-13 14:53:00
10:18 AM,80.6,69.8,70,30.11,10.0,NW,3.5,-,N/A,,Scattered Clouds,310,2012-12-13 15:18:00
10:53 AM,80.1,68.0,67,30.10,10.0,WNW,4.6,-,N/A,,Partly Cloudy,300,2012-12-13 15:53:00
11:53 AM,82.0,71.1,69,30.09,10.0,NNW,5.8,-,N/A,,Clear,340,2012-12-13 16:53:00
12:17 PM,80.6,71.6,74,30.09,10.0,NNW,9.2,-,N/A,,Mostly Cloudy,340,2012-12-13 17:17:00
12:53 PM,79.0,70.0,74,30.07,10.0,NNW,8.1,-,N/A,,Overcast,330,2012-12-13 17:53:00
1:17 PM,78.8,69.8,74,30.06,10.0,NNW,8.1,16.1,N/A,,Overcast,330,2012-12-13 18:17:00
1:33 PM,78.8,69.8,74,30.06,10.0,NNW,9.2,-,N/A,,Mostly Cloudy,330,2012-12-13 18:33:00
1:53 PM,79.0,70.0,74,30.06,10.0,NNW,11.5,17.3,N/A,,Mostly Cloudy,330,2012-12-13 18:53:00
2:14 PM,78.8,69.8,74,30.05,10.0,NNW,12.7,18.4,N/A,,Scattered Clouds,330,2012-12-13 19:14:00
2:53 PM,78.1,69.1,74,30.05,10.0,NNW,9.2,16.1,N/A,,Clear,330,2012-12-13 19:53:00
3:07 PM,78.8,69.8,74,30.04,10.0,NNW,9.2,-,N/A,,Partly Cloudy,340,2012-12-13 20:07:00
3:53 PM,75.9,69.1,79,30.04,9.0,NNW,11.5,18.4,N/A,,Scattered Clouds,330,2012-12-13 20:53:00
7:10 PM,73.4,66.2,78,30.07,10.0,NNE,16.1,21.9,N/A,,Overcast,30,2012-12-14 00:10:00
8:53 PM,73.0,64.9,76,30.09,10.0,NNE,11.5,-,N/A,,Overcast,30,2012-12-14 01:53:00
9:53 PM,73.0,64.9,76,30.09,10.0,NNE,11.5,-,N/A,,Mostly Cloudy,30,2012-12-14 02:53:00
10:53 PM,73.0,64.9,76,30.09,10.0,NNE,9.2,-,N/A,,Overcast,20,2012-12-14 03:53:00
11:53 PM,72.0,64.9,78,30.07,10.0,NNE,9.2,-,N/A,,Overcast,20,2012-12-14 04:53:00